.
WxDataArchive / Data Records for 2006-11-18
2006-11-17 November 2006 2006-11-19

Data Records for Saturday, 18 November 2006

Time	Temp	Chill	HIndex	Humid	Dewpt	 Wind 	HiWind	WindDir	Rain 	Barom 
-----	----	-----	------	-----	-----	------	------	-------	-----	----- 
00:00	36.0	36.0	36.0	83	31.3	0	0	---	0.00	30.034 
00:05	36.0	36.0	36.0	82	31.0	0	0	---	0.00	30.034 
00:10	36.2	36.2	36.2	83	31.5	0	0	---	0.00	30.034 
00:15	36.2	36.2	36.2	83	31.5	0	0	---	0.00	30.034 
00:20	36.2	36.2	36.2	84	31.8	0	0	---	0.00	30.034 
00:25	36.2	36.2	36.2	84	31.8	0	0	---	0.00	30.034 
00:30	36.2	36.2	36.2	84	31.8	0	0	---	0.00	30.027 
00:35	36.2	36.2	36.2	84	31.8	0	0	---	0.00	30.027 
00:40	36.0	36.0	36.0	84	31.6	0	0	---	0.00	30.027 
00:45	36.0	36.0	36.0	84	31.6	0	0	---	0.00	30.024 
00:50	36.0	36.0	36.0	84	31.6	0	0	---	0.00	30.024 
00:55	36.0	36.0	36.0	84	31.6	0	0	---	0.00	30.024 
01:00	36.0	36.0	36.0	85	31.9	0	0	---	0.00	30.023 
01:05	35.9	35.9	35.9	85	31.8	0	0	---	0.00	30.023 
01:10	35.9	35.9	35.9	85	31.8	0	0	---	0.00	30.023 
01:15	35.9	35.9	35.9	85	31.8	0	0	---	0.00	30.019 
01:20	35.9	35.9	35.9	85	31.8	0	1	248	0.00	30.019 
01:25	35.8	35.8	35.8	85	31.7	0	1	248	0.00	30.019 
01:30	35.8	35.8	35.8	84	31.4	0	0	---	0.00	30.014 
01:35	35.8	35.8	35.8	84	31.4	0	0	---	0.00	30.014 
01:40	35.6	35.6	35.6	84	31.3	0	0	---	0.00	30.014 
01:45	35.6	35.6	35.6	85	31.5	0	0	---	0.00	30.016 
01:50	35.6	35.6	35.6	85	31.5	0	0	---	0.00	30.016 
01:55	35.5	35.5	35.5	85	31.4	0	0	---	0.00	30.016 
02:00	35.5	35.5	35.5	85	31.4	0	0	---	0.00	30.019 
02:05	35.5	35.5	35.5	85	31.4	0	0	---	0.00	30.019 
02:10	35.5	35.5	35.5	86	31.7	0	0	---	0.00	30.019 
02:15	35.5	35.5	35.5	86	31.7	0	0	---	0.00	30.018 
02:20	35.5	35.5	35.5	86	31.7	0	0	---	0.00	30.018 
02:25	35.6	35.6	35.6	86	31.8	0	0	---	0.00	30.018 
02:30	35.6	35.6	35.6	85	31.5	0	0	---	0.00	30.016 
02:35	35.6	35.6	35.6	85	31.5	0	0	---	0.00	30.016 
02:40	35.8	35.8	35.8	85	31.7	0	0	---	0.00	30.016 
02:45	35.8	35.8	35.8	84	31.4	0	0	---	0.00	30.016 
02:50	35.8	35.8	35.8	85	31.7	0	1	248	0.00	30.016 
02:55	35.8	35.8	35.8	84	31.4	0	0	---	0.00	30.016 
03:00	35.8	35.8	35.8	84	31.4	0	0	---	0.00	30.018 
03:05	35.8	35.8	35.8	84	31.4	0	0	---	0.00	30.018 
03:10	35.6	35.6	35.6	84	31.3	0	0	---	0.00	30.018 
03:15	35.6	35.6	35.6	84	31.3	0	0	---	0.00	30.017 
03:20	35.6	35.6	35.6	83	31.0	0	0	---	0.00	30.017 
03:25	35.6	35.6	35.6	82	30.7	0	0	---	0.00	30.017 
03:30	35.8	35.8	35.8	82	30.9	0	0	---	0.00	30.010 
03:35	35.8	35.8	35.8	83	31.2	0	0	---	0.00	30.010 
03:40	35.8	35.8	35.8	83	31.2	0	0	---	0.00	30.010 
03:45	35.8	35.8	35.8	84	31.4	0	0	---	0.00	30.007 
03:50	35.8	35.8	35.8	84	31.4	0	0	---	0.00	30.007 
03:55	35.8	35.8	35.8	84	31.4	0	0	---	0.00	30.007 
04:00	35.8	35.8	35.8	84	31.4	0	0	---	0.00	30.013 
04:05	35.8	35.8	35.8	84	31.4	0	0	---	0.00	30.013 
04:10	35.8	35.8	35.8	84	31.4	0	0	---	0.00	30.013 
04:15	35.8	35.8	35.8	85	31.7	0	0	---	0.00	30.009 
04:20	35.8	35.8	35.8	85	31.7	0	0	---	0.00	30.009 
04:25	35.9	35.9	35.9	86	32.1	0	0	---	0.00	30.009 
04:30	35.9	35.9	35.9	86	32.1	0	0	---	0.00	30.004 
04:35	35.9	35.9	35.9	86	32.1	0	0	---	0.00	30.004 
04:40	35.9	35.9	35.9	86	32.1	0	0	---	0.00	30.004 
04:45	35.9	35.9	35.9	86	32.1	0	0	---	0.00	30.004 
04:50	35.8	35.8	35.8	85	31.7	0	0	---	0.00	30.004 
04:55	35.8	35.8	35.8	85	31.7	0	1	248	0.00	30.004 
05:00	35.8	35.8	35.8	86	32.0	0	0	---	0.00	30.003 
05:05	35.8	35.8	35.8	86	32.0	0	0	---	0.00	30.003 
05:10	35.8	35.8	35.8	86	32.0	0	0	---	0.00	30.003 
05:15	35.8	35.8	35.8	85	31.7	0	0	---	0.00	30.007 
05:20	35.8	35.8	35.8	85	31.7	0	0	---	0.00	30.007 
05:25	35.8	35.8	35.8	85	31.7	0	0	---	0.00	30.007 
05:30	35.8	35.8	35.8	85	31.7	0	0	---	0.00	30.007 
05:35	35.8	35.8	35.8	85	31.7	0	0	---	0.00	30.007 
05:40	35.8	35.8	35.8	85	31.7	0	0	---	0.00	30.007 
05:45	35.8	35.8	35.8	85	31.7	0	0	---	0.00	30.011 
05:50	35.8	35.8	35.8	85	31.7	0	1	248	0.00	30.011 
05:55	35.6	35.6	35.6	85	31.5	0	1	248	0.00	30.011 
06:00	35.6	35.6	35.6	84	31.3	0	1	248	0.00	30.015 
06:05	35.6	35.6	35.6	85	31.5	0	1	248	0.00	30.015 
06:10	35.8	35.8	35.8	85	31.7	0	1	248	0.00	30.015 
06:15	35.8	35.8	35.8	86	32.0	0	1	248	0.00	30.009 
06:20	35.6	35.6	35.6	86	31.8	0	1	248	0.00	30.009 
06:25	35.6	35.6	35.6	86	31.8	0	1	248	0.00	30.009 
06:30	35.6	35.6	35.6	85	31.5	0	1	248	0.00	30.011 
06:35	35.6	35.6	35.6	86	31.8	0	2	248	0.00	30.011 
06:40	35.6	35.6	35.6	85	31.5	0	1	248	0.00	30.011 
06:45	35.6	35.6	35.6	85	31.5	0	1	248	0.00	30.008 
06:50	35.6	35.6	35.6	85	31.5	0	1	248	0.00	30.008 
06:55	35.6	35.6	35.6	85	31.5	0	1	248	0.00	30.008 
07:00	35.6	35.6	35.6	85	31.5	0	1	248	0.00	30.016 
07:05	35.6	35.6	35.6	85	31.5	0	1	248	0.00	30.016 
07:10	35.6	35.6	35.6	85	31.5	0	1	248	0.00	30.016 
07:15	35.6	35.6	35.6	85	31.5	0	0	---	0.00	30.020 
07:20	35.6	35.6	35.6	85	31.5	0	1	248	0.00	30.020 
07:25	35.6	35.6	35.6	84	31.3	0	1	248	0.00	30.020 
07:30	35.6	35.6	35.6	84	31.3	0	1	248	0.00	30.022 
07:35	35.6	35.6	35.6	84	31.3	0	1	248	0.00	30.022 
07:40	35.6	35.6	35.6	85	31.5	0	0	---	0.00	30.022 
07:45	35.6	35.6	35.6	85	31.5	0	0	---	0.00	30.024 
07:50	35.6	35.6	35.6	85	31.5	0	0	---	0.00	30.024 
07:55	35.6	35.6	35.6	85	31.5	0	0	---	0.00	30.024 
08:00	35.6	35.6	35.6	85	31.5	0	0	---	0.00	30.025 
08:05	35.8	35.8	35.8	84	31.4	0	0	---	0.00	30.025 
08:10	35.8	35.8	35.8	84	31.4	0	0	---	0.00	30.025 
08:15	35.9	35.9	35.9	84	31.5	0	0	---	0.00	30.031 
08:20	35.9	35.9	35.9	84	31.5	0	0	---	0.00	30.031 
08:25	35.9	35.9	35.9	83	31.2	0	1	248	0.00	30.031 
08:30	36.0	36.0	36.0	83	31.3	0	1	248	0.00	30.036 
08:35	36.0	36.0	36.0	82	31.0	0	1	248	0.00	30.036 
08:40	36.2	36.2	36.2	83	31.5	0	0	---	0.00	30.036 
08:45	36.3	36.3	36.3	83	31.6	0	0	---	0.00	30.037 
08:50	36.5	36.5	36.5	83	31.8	0	0	---	0.00	30.037 
08:55	36.5	36.5	36.5	82	31.5	0	1	248	0.00	30.037 
09:00	36.6	36.6	36.6	82	31.6	0	0	---	0.00	30.038 
09:05	36.6	36.6	36.6	81	31.3	0	2	248	0.00	30.038 
09:10	36.8	36.8	36.8	81	31.5	0	1	248	0.00	30.038 
09:15	36.9	36.9	36.9	81	31.6	0	1	248	0.00	30.038 
09:20	37.0	37.0	37.0	80	31.4	0	1	248	0.00	30.038 
09:25	37.2	37.2	37.2	79	31.3	1	3	135	0.00	30.038 
09:30	37.3	37.3	37.3	78	31.1	1	2	135	0.00	30.038 
09:35	37.5	37.5	37.5	78	31.3	0	2	135	0.00	30.038 
09:40	37.6	37.6	37.6	77	31.1	1	3	112	0.00	30.038 
09:45	37.6	37.6	37.6	77	31.1	1	4	112	0.00	30.038 
09:50	37.8	37.8	37.8	77	31.2	0	1	112	0.00	30.038 
09:55	37.8	37.8	37.8	76	30.9	1	3	90	0.00	30.038 
10:00	37.9	37.9	37.9	76	31.0	0	4	90	0.00	30.037 
10:05	37.9	37.9	37.9	75	30.7	1	3	112	0.00	30.037 
10:10	38.0	38.0	38.0	76	31.1	0	3	112	0.00	30.037 
10:15	38.0	38.0	38.0	75	30.8	1	3	112	0.00	30.038 
10:20	38.3	38.3	38.3	76	31.4	0	2	112	0.00	30.038 
10:25	38.5	38.5	38.5	75	31.3	1	4	112	0.00	30.038 
10:30	38.8	38.8	38.8	74	31.2	1	3	112	0.00	30.042 
10:35	38.8	38.8	38.8	76	31.9	1	2	112	0.00	30.042 
10:40	38.9	38.9	38.9	73	31.0	1	4	112	0.00	30.042 
10:45	38.9	38.9	38.9	73	31.0	1	3	90	0.00	30.047 
10:50	39.1	39.1	39.1	73	31.2	1	3	90	0.00	30.047 
10:55	39.3	39.3	39.3	72	31.0	1	2	90	0.00	30.047 
11:00	39.5	39.5	39.5	71	30.9	1	3	90	0.00	30.047 
11:05	39.5	39.5	39.5	71	30.9	1	2	90	0.00	30.047 
11:10	39.6	39.6	39.6	71	31.0	1	3	90	0.00	30.047 
11:15	40.1	40.1	40.1	73	32.2	1	2	112	0.00	30.045 
11:20	40.5	40.5	40.5	70	31.5	1	3	112	0.00	30.045 
11:25	41.1	41.1	41.1	69	31.7	1	3	112	0.00	30.045 
11:30	41.3	41.3	41.3	69	31.9	1	3	135	0.00	30.038 
11:35	41.1	41.1	41.1	68	31.4	2	6	90	0.00	30.038 
11:40	40.5	40.5	40.5	68	30.8	3	5	112	0.00	30.038 
11:45	40.5	40.5	40.5	68	30.8	2	4	112	0.00	30.036 
11:50	40.8	40.8	40.8	66	30.3	2	5	90	0.00	30.036 
11:55	40.9	40.9	40.9	67	30.8	2	4	112	0.00	30.036 
12:00	40.9	40.9	40.9	66	30.4	2	5	112	0.00	30.032 
12:05	41.1	41.1	41.1	68	31.4	1	4	135	0.00	30.032 
12:10	41.2	41.2	41.2	68	31.5	2	6	112	0.00	30.032 
12:15	41.2	41.2	41.2	67	31.1	2	5	112	0.00	30.026 
12:20	41.1	41.1	41.1	67	31.0	1	4	112	0.00	30.026 
12:25	41.1	41.1	41.1	68	31.4	2	4	112	0.00	30.026 
12:30	41.1	41.1	41.1	67	31.0	2	4	90	0.00	30.028 
12:35	41.2	41.2	41.2	68	31.5	1	2	90	0.00	30.028 
12:40	41.5	41.5	41.5	68	31.7	2	5	112	0.00	30.028 
12:45	41.6	41.6	41.6	67	31.5	2	5	112	0.00	30.025 
12:50	41.9	41.9	41.9	67	31.8	2	4	68	0.00	30.025 
12:55	42.1	42.1	42.1	65	31.2	0	2	68	0.00	30.025 
13:00	42.3	42.3	42.3	69	32.9	1	3	90	0.00	30.025 
13:05	42.3	42.3	42.3	67	32.1	1	5	112	0.00	30.025 
13:10	42.2	42.2	42.2	67	32.0	0	2	112	0.00	30.025 
13:15	42.2	42.2	42.2	68	32.4	1	4	112	0.00	30.020 
13:20	42.1	42.1	42.1	66	31.6	0	2	112	0.00	30.020 
13:25	41.9	41.9	41.9	65	31.0	0	2	22	0.00	30.020 
13:30	41.9	41.9	41.9	67	31.8	0	2	22	0.00	30.017 
13:35	41.9	41.9	41.9	67	31.8	0	2	22	0.00	30.017 
13:40	42.1	42.1	42.1	66	31.6	0	1	22	0.00	30.017 
13:45	42.1	42.1	42.1	67	31.9	1	2	45	0.00	30.016 
13:50	41.9	41.9	41.9	65	31.0	0	1	22	0.00	30.016 
13:55	41.9	41.9	41.9	65	31.0	0	2	22	0.00	30.016 
14:00	41.8	41.8	41.8	65	30.9	0	2	22	0.00	30.016 
14:05	41.5	41.5	41.5	65	30.6	1	2	22	0.00	30.016 
14:10	41.5	41.5	41.5	65	30.6	0	2	338	0.00	30.016 
14:15	41.3	41.3	41.3	65	30.4	0	2	45	0.00	30.017 
14:20	41.3	41.3	41.3	64	30.1	0	0	---	0.00	30.017 
14:25	41.3	41.3	41.3	64	30.1	1	2	45	0.00	30.017 
14:30	41.3	41.3	41.3	65	30.4	0	2	45	0.00	30.018 
14:35	41.5	41.5	41.5	65	30.6	0	1	45	0.00	30.018 
14:40	41.6	41.6	41.6	65	30.7	0	3	45	0.00	30.018 
14:45	41.8	41.8	41.8	65	30.9	0	3	90	0.00	30.016 
14:50	41.8	41.8	41.8	65	30.9	0	1	90	0.00	30.016 
14:55	41.9	41.9	41.9	64	30.6	1	3	90	0.00	30.016 
15:00	41.9	41.9	41.9	65	31.0	0	1	90	0.00	30.016 
15:05	41.9	41.9	41.9	64	30.6	0	1	90	0.00	30.016 
15:10	41.9	41.9	41.9	66	31.4	1	3	90	0.00	30.016 
15:15	41.9	41.9	41.9	63	30.2	1	4	90	0.00	30.016 
15:20	42.1	42.1	42.1	65	31.2	0	1	90	0.00	30.016 
15:25	42.2	42.2	42.2	65	31.3	0	2	90	0.00	30.016 
15:30	42.2	42.2	42.2	64	30.9	0	2	90	0.00	30.020 
15:35	42.2	42.2	42.2	65	31.3	1	3	68	0.00	30.020 
15:40	42.2	42.2	42.2	65	31.3	0	1	68	0.00	30.020 
15:45	42.1	42.1	42.1	64	30.8	0	2	68	0.00	30.022 
15:50	42.1	42.1	42.1	65	31.2	0	2	45	0.00	30.022 
15:55	41.9	41.9	41.9	65	31.0	0	2	45	0.00	30.022 
16:00	41.9	41.9	41.9	64	30.6	0	1	45	0.00	30.024 
16:05	41.8	41.8	41.8	65	30.9	0	3	45	0.00	30.024 
16:10	41.6	41.6	41.6	66	31.1	0	2	315	0.00	30.024 
16:15	41.6	41.6	41.6	65	30.7	1	3	90	0.00	30.029 
16:20	41.5	41.5	41.5	65	30.6	0	2	315	0.00	30.029 
16:25	41.3	41.3	41.3	64	30.1	0	2	22	0.00	30.029 
16:30	41.3	41.3	41.3	65	30.4	0	1	338	0.00	30.035 
16:35	41.3	41.3	41.3	65	30.4	0	1	338	0.00	30.035 
16:40	41.2	41.2	41.2	65	30.3	0	1	338	0.00	30.035 
16:45	41.2	41.2	41.2	65	30.3	0	2	338	0.00	30.042 
16:50	41.2	41.2	41.2	66	30.7	0	1	338	0.00	30.042 
16:55	41.2	41.2	41.2	66	30.7	0	0	---	0.00	30.042 
17:00	41.1	41.1	41.1	66	30.6	0	1	0	0.00	30.047 
17:05	41.1	41.1	41.1	67	31.0	0	1	0	0.00	30.047 
17:10	41.1	41.1	41.1	67	31.0	0	1	0	0.00	30.047 
17:15	40.9	40.9	40.9	66	30.4	0	1	0	0.00	30.048 
17:20	40.9	40.9	40.9	67	30.8	0	1	0	0.00	30.048 
17:25	40.9	40.9	40.9	68	31.2	0	1	0	0.00	30.048 
17:30	40.9	40.9	40.9	69	31.5	0	0	---	0.00	30.047 
17:35	40.8	40.8	40.8	68	31.1	0	0	---	0.00	30.047 
17:40	40.8	40.8	40.8	68	31.1	0	1	0	0.00	30.047 
17:45	40.6	40.6	40.6	68	30.9	0	0	---	0.00	30.048 
17:50	40.6	40.6	40.6	69	31.2	0	0	---	0.00	30.048 
17:55	40.5	40.5	40.5	69	31.1	0	0	---	0.00	30.048 
18:00	40.5	40.5	40.5	69	31.1	0	0	---	0.00	30.050 
18:05	40.5	40.5	40.5	69	31.1	0	0	---	0.00	30.050 
18:10	40.3	40.3	40.3	69	31.0	0	0	---	0.00	30.050 
18:15	40.3	40.3	40.3	70	31.3	0	0	---	0.00	30.053 
18:20	40.3	40.3	40.3	69	31.0	0	0	---	0.00	30.053 
18:25	40.3	40.3	40.3	70	31.3	0	0	---	0.00	30.053 
18:30	40.3	40.3	40.3	70	31.3	0	0	---	0.00	30.055 
18:35	40.5	40.5	40.5	70	31.5	0	0	---	0.00	30.055 
18:40	40.5	40.5	40.5	70	31.5	0	0	---	0.00	30.055 
18:45	40.5	40.5	40.5	69	31.1	0	0	---	0.00	30.056 
18:50	40.3	40.3	40.3	69	31.0	0	0	---	0.00	30.056 
18:55	40.3	40.3	40.3	69	31.0	0	0	---	0.00	30.056 
19:00	40.3	40.3	40.3	69	31.0	0	0	---	0.00	30.062 
19:05	40.3	40.3	40.3	69	31.0	0	1	0	0.00	30.062 
19:10	40.3	40.3	40.3	70	31.3	0	1	0	0.00	30.062 
19:15	40.3	40.3	40.3	70	31.3	0	1	0	0.00	30.064 
19:20	40.3	40.3	40.3	70	31.3	0	0	---	0.00	30.064 
19:25	40.3	40.3	40.3	70	31.3	0	2	0	0.00	30.064 
19:30	40.3	40.3	40.3	69	31.0	0	1	0	0.00	30.065 
19:35	40.3	40.3	40.3	70	31.3	0	1	0	0.00	30.065 
19:40	40.3	40.3	40.3	69	31.0	0	1	0	0.00	30.065 
19:45	40.3	40.3	40.3	70	31.3	0	1	0	0.00	30.065 
19:50	40.2	40.2	40.2	70	31.2	0	1	0	0.00	30.065 
19:55	40.2	40.2	40.2	69	30.9	0	2	0	0.00	30.065 
20:00	40.2	40.2	40.2	70	31.2	0	1	0	0.00	30.068 
20:05	40.2	40.2	40.2	70	31.2	0	1	0	0.00	30.068 
20:10	40.2	40.2	40.2	70	31.2	0	2	0	0.00	30.068 
20:15	40.2	40.2	40.2	70	31.2	0	2	338	0.00	30.072 
20:20	40.2	40.2	40.2	70	31.2	0	2	338	0.00	30.072 
20:25	40.2	40.2	40.2	70	31.2	0	1	338	0.00	30.072 
20:30	40.1	40.1	40.1	70	31.1	0	2	338	0.00	30.076 
20:35	40.1	40.1	40.1	71	31.5	0	2	315	0.00	30.076 
20:40	40.1	40.1	40.1	70	31.1	0	2	315	0.00	30.076 
20:45	40.1	40.1	40.1	71	31.5	0	1	315	0.00	30.075 
20:50	40.1	40.1	40.1	71	31.5	0	1	315	0.00	30.075 
20:55	39.9	39.9	39.9	71	31.3	0	1	315	0.00	30.075 
21:00	39.9	39.9	39.9	71	31.3	0	1	315	0.00	30.076 
21:05	39.9	39.9	39.9	71	31.3	0	1	315	0.00	30.076 
21:10	39.9	39.9	39.9	71	31.3	0	2	315	0.00	30.076 
21:15	39.9	39.9	39.9	70	30.9	0	2	0	0.00	30.072 
21:20	39.9	39.9	39.9	70	30.9	0	2	338	0.00	30.072 
21:25	39.9	39.9	39.9	70	30.9	0	1	338	0.00	30.072 
21:30	39.9	39.9	39.9	71	31.3	0	2	315	0.00	30.070 
21:35	39.9	39.9	39.9	71	31.3	0	2	22	0.00	30.070 
21:40	39.9	39.9	39.9	71	31.3	0	1	0	0.00	30.070 
21:45	39.9	39.9	39.9	70	30.9	0	2	0	0.00	30.070 
21:50	39.9	39.9	39.9	71	31.3	0	1	0	0.00	30.070 
21:55	39.8	39.8	39.8	71	31.2	0	2	0	0.00	30.070 
22:00	39.8	39.8	39.8	71	31.2	0	1	0	0.00	30.072 
22:05	39.8	39.8	39.8	71	31.2	0	1	0	0.00	30.072 
22:10	39.8	39.8	39.8	72	31.5	0	0	---	0.00	30.072 
22:15	39.6	39.6	39.6	72	31.3	0	1	0	0.00	30.074 
22:20	39.6	39.6	39.6	73	31.7	0	1	0	0.00	30.074 
22:25	39.6	39.6	39.6	72	31.3	0	1	0	0.00	30.074 
22:30	39.5	39.5	39.5	72	31.2	0	1	0	0.00	30.073 
22:35	39.5	39.5	39.5	73	31.6	0	0	---	0.00	30.073 
22:40	39.5	39.5	39.5	73	31.6	0	1	0	0.00	30.073 
22:45	39.5	39.5	39.5	73	31.6	0	0	---	0.00	30.071 
22:50	39.3	39.3	39.3	73	31.4	0	0	---	0.00	30.071 
22:55	39.3	39.3	39.3	73	31.4	0	0	---	0.00	30.071 
23:00	39.3	39.3	39.3	74	31.7	0	0	---	0.00	30.067 
23:05	39.2	39.2	39.2	74	31.6	0	0	---	0.00	30.067 
23:10	39.2	39.2	39.2	74	31.6	0	1	0	0.00	30.067 
23:15	39.2	39.2	39.2	73	31.3	0	0	---	0.00	30.063 
23:20	39.1	39.1	39.1	74	31.5	0	0	---	0.00	30.063 
23:25	39.1	39.1	39.1	74	31.5	0	0	---	0.00	30.063 
23:30	38.9	38.9	38.9	74	31.3	0	1	0	0.00	30.064 
23:35	38.9	38.9	38.9	75	31.7	0	0	---	0.00	30.064 
23:40	38.9	38.9	38.9	75	31.7	0	0	---	0.00	30.064 
23:45	38.8	38.8	38.8	75	31.6	0	0	---	0.00	30.065 
23:50	38.8	38.8	38.8	75	31.6	0	0	---	0.00	30.065 
23:55	38.6	38.6	38.6	75	31.4	0	1	0	0.00	30.065 

CoCoRaHS
IN-AL-39
A2 Web Hosting
Creative Commons License
GoDaddy
Look for:

loaded 2017-12-11 14:36:25 • last modified 2010-11-18 10:43:29
Privacy PolicyDisclaimer
• wx.awcolley.com is powered by PmWiki v.2002016 •
• all content (unless otherwise noted) © 2017 A W Colley